Time;durP1;ratioP1;P1;durP2;ratioP2;P2;SDS_P1;SDS_P2;PMS_P1;PMS_P2;Temp;Humidity;BMP_temperature;BMP_pressure;BME280_temperature;BME280_humidity;BME280_pressure;Samples;Min_cycle;Max_cycle;Signal;HPM_P1;HPM_P2
2023/06/22 00:00:50;;;;;;;6.93;2.90;;;;;;;;;;4977780;28;98994;-77
2023/06/22 00:03:19;;;;;;;5.30;2.78;;;;;;;;;;4969218;28;98423;-76
2023/06/22 00:05:47;;;;;;;7.07;2.60;;;;;;;;;;4948193;28;98630;-75
2023/06/22 00:08:13;;;;;;;7.45;3.40;;;;;;;;;;4975674;28;100348;-76
2023/06/22 00:10:40;;;;;;;7.63;3.20;;;;;;;;;;4980546;28;101098;-76
2023/06/22 00:13:07;;;;;;;7.03;3.65;;;;;;;;;;4966137;28;99772;-76
2023/06/22 00:15:34;;;;;;;;;;;;;;;;;;4967843;28;98984;-76
2023/06/22 00:18:02;;;;;;;5.97;2.38;;;;;;;;;;4969073;28;99100;-76
2023/06/22 00:20:29;;;;;;;7.15;2.55;;;;;;;;;;4968248;28;98825;-76
2023/06/22 00:22:57;;;;;;;10.43;2.40;;;;;;;;;;4990422;28;99925;-77
2023/06/22 00:25:24;;;;;;;6.03;2.25;;;;;;;;;;4977178;28;98964;-77
2023/06/22 00:27:51;;;;;;;7.03;2.45;;;;;;;;;;4985649;28;101631;-76
2023/06/22 00:30:18;;;;;;;6.25;2.42;;;;;;;;;;4986240;28;100005;-75
2023/06/22 00:32:44;;;;;;;5.28;2.30;;;;;;;;;;4985611;28;98591;-75
2023/06/22 00:35:13;;;;;;;5.38;2.40;;;;;;;;;;4975634;28;99911;-75
2023/06/22 00:37:43;;;;;;;5.82;2.60;;;;;;;;;;4965948;28;106344;-75
2023/06/22 00:40:11;;;;;;;6.22;2.90;;;;;;;;;;4973443;28;99010;-75
2023/06/22 00:42:38;;;;;;;8.48;3.90;;;;;;;;;;4949414;28;98625;-75
2023/06/22 00:45:05;;;;;;;;;;;;;;;;;;4970389;28;99380;-75
2023/06/22 00:47:32;;;;;;;7.25;3.22;;;;;;;;;;4984092;28;115625;-76
2023/06/22 00:50:00;;;;;;;6.18;2.80;;;;;;;;;;4984950;28;100508;-75
2023/06/22 00:52:27;;;;;;;6.03;2.65;;;;;;;;;;4982842;28;97816;-75
2023/06/22 00:54:56;;;;;;;6.82;3.67;;;;;;;;;;4976286;28;101017;-75
2023/06/22 00:57:27;;;;;;;8.30;3.50;;;;;;;;;;4978684;28;100034;-76
2023/06/22 00:59:55;;;;;;;6.22;3.15;;;;;;;;;;4976349;28;99815;-78
2023/06/22 01:02:21;;;;;;;6.32;2.60;;;;;;;;;;4978725;28;100606;-76
2023/06/22 01:04:48;;;;;;;6.15;2.55;;;;;;;;;;4986633;28;99388;-74
2023/06/22 01:07:52;;;;;;;5.75;2.70;;;;;;;;;;4990214;28;98989;-76
2023/06/22 01:10:27;;;;;;;7.15;3.13;;;;;;;;;;4948802;28;100398;-77
2023/06/22 01:12:57;;;;;;;6.13;3.10;;;;;;;;;;4967271;28;98514;-77
2023/06/22 01:15:32;;;;;;;7.22;3.38;;;;;;;;;;4963367;28;98953;-77
2023/06/22 01:17:59;;;;;;;8.27;2.97;;;;;;;;;;4976641;28;98215;-77
2023/06/22 01:20:27;;;;;;;6.03;2.60;;;;;;;;;;4982054;28;98628;-77
2023/06/22 01:23:13;;;;;;;6.22;2.90;;;;;;;;;;4994071;28;99970;-75
2023/06/22 01:25:55;;;;;;;8.50;2.95;;;;;;;;;;4980728;28;104646;-76
2023/06/22 01:28:37;;;;;;;7.30;3.42;;;;;;;;;;4982448;28;98802;-75
2023/06/22 01:31:04;;;;;;;6.43;2.80;;;;;;;;;;4986080;28;101264;-74
2023/06/22 01:33:34;;;;;;;5.18;2.42;;;;;;;;;;4976328;28;99593;-76
2023/06/22 01:36:01;;;;;;;5.80;2.40;;;;;;;;;;4978231;28;100068;-77
2023/06/22 01:38:29;;;;;;;5.32;2.40;;;;;;;;;;4990777;28;101937;-77
2023/06/22 01:40:57;;;;;;;5.65;2.33;;;;;;;;;;4971832;28;98538;-77
2023/06/22 01:43:25;;;;;;;6.55;2.60;;;;;;;;;;4971190;28;99011;-76
2023/06/22 01:45:52;;;;;;;5.65;2.70;;;;;;;;;;4986131;28;100748;-75
2023/06/22 01:48:19;;;;;;;7.40;3.20;;;;;;;;;;4974037;28;98767;-75
2023/06/22 01:50:45;;;;;;;8.70;3.10;;;;;;;;;;4968399;28;101581;-76
2023/06/22 01:53:12;;;;;;;7.63;3.30;;;;;;;;;;4976176;28;99329;-75
2023/06/22 01:55:39;;;;;;;8.27;3.70;;;;;;;;;;4966961;28;99998;-75
2023/06/22 01:58:05;;;;;;;8.55;3.55;;;;;;;;;;4978323;28;99618;-76
2023/06/22 02:00:34;;;;;;;5.63;2.50;;;;;;;;;;4977670;28;98647;-76
2023/06/22 02:03:05;;;;;;;5.90;2.78;;;;;;;;;;4965496;28;98847;-76
2023/06/22 02:05:34;;;;;;;5.45;2.55;;;;;;;;;;4979645;28;101846;-76
2023/06/22 02:08:07;;;;;;;8.02;3.67;;;;;;;;;;4987004;28;97761;-76
2023/06/22 02:10:34;;;;;;;6.78;3.25;;;;;;;;;;4965968;28;98662;-74
2023/06/22 02:13:02;;;;;;;5.03;2.40;;;;;;;;;;4968684;28;99261;-77
2023/06/22 02:15:29;;;;;;;7.22;3.78;;;;;;;;;;4963847;28;99315;-75
2023/06/22 02:17:55;;;;;;;6.53;2.63;;;;;;;;;;4965027;28;99167;-75
2023/06/22 02:20:23;;;;;;;6.38;2.72;;;;;;;;;;4962303;28;98852;-74
2023/06/22 02:22:50;;;;;;;6.75;3.20;;;;;;;;;;4993425;28;100200;-77
2023/06/22 02:25:16;;;;;;;7.10;3.50;;;;;;;;;;4969651;28;99512;-76
2023/06/22 02:27:45;;;;;;;7.55;3.53;;;;;;;;;;4965612;28;98586;-76
2023/06/22 02:30:12;;;;;;;8.75;3.53;;;;;;;;;;4978028;28;99483;-76
2023/06/22 02:32:41;;;;;;;6.88;3.45;;;;;;;;;;4964855;28;98762;-77
2023/06/22 02:35:09;;;;;;;7.05;3.50;;;;;;;;;;4984727;28;99486;-76
2023/06/22 02:37:38;;;;;;;5.57;2.70;;;;;;;;;;4964382;28;99155;-77
2023/06/22 02:40:07;;;;;;;6.80;2.92;;;;;;;;;;4962938;28;99359;-77
2023/06/22 02:42:33;;;;;;;5.55;2.42;;;;;;;;;;4979366;28;100071;-76
2023/06/22 02:45:00;;;;;;;6.40;2.55;;;;;;;;;;4982882;28;101688;-76
2023/06/22 02:47:26;;;;;;;7.63;3.42;;;;;;;;;;4982403;28;98853;-76
2023/06/22 02:49:53;;;;;;;6.20;3.13;;;;;;;;;;4982955;28;102787;-77
2023/06/22 02:52:20;;;;;;;8.57;3.28;;;;;;;;;;4981237;28;102092;-77
2023/06/22 02:54:46;;;;;;;6.10;2.58;;;;;;;;;;4983154;28;98642;-77
2023/06/22 02:57:13;;;;;;;5.40;2.65;;;;;;;;;;4970236;28;101984;-77
2023/06/22 02:59:41;;;;;;;8.68;3.20;;;;;;;;;;4982228;28;98603;-77
2023/06/22 03:02:11;;;;;;;7.07;3.45;;;;;;;;;;4983224;28;101799;-76
2023/06/22 03:04:38;;;;;;;7.80;3.97;;;;;;;;;;4982047;28;101349;-76
2023/06/22 03:07:05;;;;;;;6.75;2.42;;;;;;;;;;4983503;28;98658;-76
2023/06/22 03:09:33;;;;;;;6.00;2.63;;;;;;;;;;4981961;28;101584;-76
2023/06/22 03:11:59;;;;;;;5.95;2.50;;;;;;;;;;4982279;28;101950;-76
2023/06/22 03:14:33;;;;;;;5.32;2.40;;;;;;;;;;4972400;28;100199;-76
2023/06/22 03:17:03;;;;;;;5.55;2.70;;;;;;;;;;5001235;28;101828;-75
2023/06/22 03:19:31;;;;;;;5.95;2.50;;;;;;;;;;4983444;28;99024;-76
2023/06/22 03:21:59;;;;;;;6.20;2.78;;;;;;;;;;4984763;28;101945;-75
2023/06/22 03:24:29;;;;;;;6.45;2.60;;;;;;;;;;4987212;28;101021;-75
2023/06/22 03:26:56;;;;;;;5.70;2.60;;;;;;;;;;4985012;28;98685;-76
2023/06/22 03:29:23;;;;;;;5.68;2.58;;;;;;;;;;4983006;28;99762;-75
2023/06/22 03:31:50;;;;;;;6.60;2.72;;;;;;;;;;4981803;28;101080;-76
2023/06/22 03:34:17;;;;;;;5.43;2.50;;;;;;;;;;4974322;28;98597;-76
2023/06/22 03:36:45;;;;;;;5.90;2.70;;;;;;;;;;4987613;28;99074;-76
2023/06/22 03:39:11;;;;;;;5.95;2.72;;;;;;;;;;4995967;28;99651;-76
2023/06/22 03:41:40;;;;;;;11.75;2.85;;;;;;;;;;4983788;28;105721;-76
2023/06/22 03:44:06;;;;;;;7.43;2.95;;;;;;;;;;4967300;28;101255;-75
2023/06/22 03:46:33;;;;;;;7.43;2.58;;;;;;;;;;4988234;28;98156;-77
2023/06/22 03:48:59;;;;;;;6.13;2.60;;;;;;;;;;4985926;28;101598;-77
2023/06/22 03:51:30;;;;;;;6.07;2.78;;;;;;;;;;4986473;28;100071;-75
2023/06/22 03:53:56;;;;;;;5.82;2.83;;;;;;;;;;4991795;28;99692;-75
2023/06/22 03:56:23;;;;;;;5.90;2.75;;;;;;;;;;4972753;28;99442;-76
2023/06/22 03:58:49;;;;;;;5.25;2.40;;;;;;;;;;4974804;28;100191;-77
2023/06/22 04:01:17;;;;;;;6.35;3.05;;;;;;;;;;4973871;28;98486;-75
2023/06/22 04:03:43;;;;;;;5.88;2.42;;;;;;;;;;4986117;28;100108;-77
2023/06/22 04:06:10;;;;;;;6.00;2.97;;;;;;;;;;4986932;28;98648;-76
2023/06/22 04:08:36;;;;;;;7.53;2.70;;;;;;;;;;4987159;28;98983;-77
2023/06/22 04:11:03;;;;;;;7.22;2.75;;;;;;;;;;4975481;28;98464;-78
2023/06/22 04:13:30;;;;;;;5.85;2.80;;;;;;;;;;4986896;28;98955;-77
2023/06/22 04:15:56;;;;;;;6.60;3.20;;;;;;;;;;4986802;28;98902;-77
2023/06/22 04:18:23;;;;;;;8.80;4.25;;;;;;;;;;4986101;28;101085;-77
2023/06/22 04:20:49;;;;;;;7.82;3.75;;;;;;;;;;4986358;28;98862;-76
2023/06/22 04:23:16;;;;;;;7.20;3.47;;;;;;;;;;4985672;28;98904;-77
2023/06/22 04:25:42;;;;;;;8.60;3.50;;;;;;;;;;4980745;28;98564;-77
2023/06/22 04:28:12;;;;;;;5.95;2.70;;;;;;;;;;4986434;28;98743;-78
2023/06/22 04:30:46;;;;;;;9.27;3.00;;;;;;;;;;4985672;28;99237;-78
2023/06/22 04:33:16;;;;;;;6.47;3.05;;;;;;;;;;4984172;28;98594;-78
2023/06/22 04:35:46;;;;;;;7.72;2.92;;;;;;;;;;4966253;28;104632;-78
2023/06/22 04:38:13;;;;;;;6.05;2.83;;;;;;;;;;4979620;28;101150;-77
2023/06/22 04:40:40;;;;;;;6.60;2.78;;;;;;;;;;4995110;28;98986;-77
2023/06/22 04:43:06;;;;;;;7.45;3.40;;;;;;;;;;4986005;28;99289;-77
2023/06/22 04:45:33;;;;;;;6.93;2.95;;;;;;;;;;4986170;28;100437;-77
2023/06/22 04:47:59;;;;;;;7.43;3.42;;;;;;;;;;4985730;28;98940;-77
2023/06/22 04:50:26;;;;;;;6.97;3.03;;;;;;;;;;4986061;28;99094;-77
2023/06/22 04:52:53;;;;;;;6.70;3.13;;;;;;;;;;4979440;28;98646;-77
2023/06/22 04:55:20;;;;;;;8.60;3.92;;;;;;;;;;4972979;28;101829;-77
2023/06/22 04:57:50;;;;;;;8.30;3.50;;;;;;;;;;4980108;28;99373;-76
2023/06/22 05:00:17;;;;;;;8.25;3.17;;;;;;;;;;4972698;28;98471;-76
2023/06/22 05:02:45;;;;;;;8.05;3.42;;;;;;;;;;4981332;28;99081;-76
2023/06/22 05:05:13;;;;;;;9.93;3.83;;;;;;;;;;4965623;28;99490;-77
2023/06/22 05:07:42;;;;;;;7.57;3.53;;;;;;;;;;4983782;28;99652;-77
2023/06/22 05:10:12;;;;;;;7.95;4.05;;;;;;;;;;4988697;28;99335;-77
2023/06/22 05:12:39;;;;;;;9.75;3.40;;;;;;;;;;4966174;28;98721;-78
2023/06/22 05:15:09;;;;;;;7.85;3.10;;;;;;;;;;4972377;28;98776;-76
2023/06/22 05:17:36;;;;;;;7.95;3.20;;;;;;;;;;4985577;28;100703;-76
2023/06/22 05:20:06;;;;;;;10.18;5.15;;;;;;;;;;4984570;28;98737;-77
2023/06/22 05:22:32;;;;;;;10.13;3.70;;;;;;;;;;4991628;28;102906;-77
2023/06/22 05:24:59;;;;;;;7.50;3.45;;;;;;;;;;4988824;28;99397;-76
2023/06/22 05:27:26;;;;;;;8.60;3.60;;;;;;;;;;4968966;28;98586;-76
2023/06/22 05:29:52;;;;;;;7.70;3.40;;;;;;;;;;4965873;28;99673;-77
2023/06/22 05:32:19;;;;;;;9.65;4.30;;;;;;;;;;4974818;28;99490;-78
2023/06/22 05:34:46;;;;;;;8.35;3.95;;;;;;;;;;4974421;28;99906;-77
2023/06/22 05:37:12;;;;;;;8.70;4.15;;;;;;;;;;4968636;28;101695;-77
2023/06/22 05:39:39;;;;;;;8.75;4.00;;;;;;;;;;4991240;28;98685;-77
2023/06/22 05:42:06;;;;;;;9.13;4.47;;;;;;;;;;4981467;28;98873;-76
2023/06/22 05:44:37;;;;;;;10.20;4.35;;;;;;;;;;4985191;28;100214;-77
2023/06/22 05:47:03;;;;;;;10.00;4.63;;;;;;;;;;4983692;28;98653;-77
2023/06/22 05:49:32;;;;;;;10.15;4.70;;;;;;;;;;4984360;28;101895;-78
2023/06/22 05:51:59;;;;;;;11.32;5.18;;;;;;;;;;4981492;28;105390;-77
2023/06/22 05:54:29;;;;;;;10.07;4.82;;;;;;;;;;4981949;28;100237;-78
2023/06/22 05:56:56;;;;;;;10.32;4.93;;;;;;;;;;4975031;28;99758;-77
2023/06/22 05:59:23;;;;;;;14.90;6.38;;;;;;;;;;4984870;28;99127;-77
2023/06/22 06:01:50;;;;;;;13.00;6.18;;;;;;;;;;4985769;28;100333;-77
2023/06/22 06:04:17;;;;;;;10.25;5.43;;;;;;;;;;4983456;28;100623;-77
2023/06/22 06:06:44;;;;;;;11.88;6.05;;;;;;;;;;4984260;28;98682;-76
2023/06/22 06:09:11;;;;;;;15.65;6.90;;;;;;;;;;4996639;28;99018;-78
2023/06/22 06:11:39;;;;;;;11.35;6.05;;;;;;;;;;4969127;28;100203;-77
2023/06/22 06:14:06;;;;;;;13.02;8.35;;;;;;;;;;4966360;28;99965;-77
2023/06/22 06:16:32;;;;;;;16.30;9.73;;;;;;;;;;4968381;28;99095;-77
2023/06/22 06:18:59;;;;;;;12.40;7.65;;;;;;;;;;4983849;28;98568;-77
2023/06/22 06:21:26;;;;;;;12.02;6.30;;;;;;;;;;4984853;28;100213;-76
2023/06/22 06:23:56;;;;;;;11.15;6.15;;;;;;;;;;4989976;28;99128;-75
2023/06/22 06:26:27;;;;;;;15.13;8.68;;;;;;;;;;4975902;28;98578;-76
2023/06/22 06:28:55;;;;;;;11.18;5.88;;;;;;;;;;4971470;28;99930;-78
2023/06/22 06:31:23;;;;;;;14.00;7.93;;;;;;;;;;4974673;28;99234;-76
2023/06/22 06:33:49;;;;;;;13.85;7.43;;;;;;;;;;4970054;28;98837;-76
2023/06/22 06:36:16;;;;;;;24.23;7.00;;;;;;;;;;4965149;28;99045;-77
2023/06/22 06:38:43;;;;;;;16.27;6.50;;;;;;;;;;4972557;28;97821;-76
2023/06/22 06:41:09;;;;;;;15.95;5.72;;;;;;;;;;4985322;28;98822;-76
2023/06/22 06:43:36;;;;;;;14.80;5.65;;;;;;;;;;4984551;28;99397;-76
2023/06/22 06:46:03;;;;;;;10.30;4.18;;;;;;;;;;4982761;28;99256;-76
2023/06/22 06:48:29;;;;;;;12.43;4.38;;;;;;;;;;4983053;28;101336;-76
2023/06/22 06:50:56;;;;;;;15.20;6.80;;;;;;;;;;4976745;28;100085;-76
2023/06/22 06:53:23;;;;;;;13.57;4.25;;;;;;;;;;4969678;28;99197;-75
2023/06/22 06:55:49;;;;;;;8.10;3.78;;;;;;;;;;4983354;28;99047;-76
2023/06/22 06:58:16;;;;;;;10.18;4.30;;;;;;;;;;4980396;28;99282;-77
2023/06/22 07:00:43;;;;;;;11.07;5.15;;;;;;;;;;4980277;28;100759;-76
2023/06/22 07:03:10;;;;;;;10.80;5.88;;;;;;;;;;4978132;28;98970;-76
2023/06/22 07:05:37;;;;;;;11.82;4.85;;;;;;;;;;4983473;28;99057;-77
2023/06/22 07:08:03;;;;;;;13.05;6.18;;;;;;;;;;4984304;28;98818;-75
2023/06/22 07:10:30;;;;;;;16.05;6.03;;;;;;;;;;4988026;28;99799;-78
2023/06/22 07:12:57;;;;;;;11.13;3.97;;;;;;;;;;4980617;28;98667;-76
2023/06/22 07:15:24;;;;;;;12.05;5.45;;;;;;;;;;4981208;28;102164;-76
2023/06/22 07:17:50;;;;;;;11.98;4.55;;;;;;;;;;4979504;28;101843;-77
2023/06/22 07:20:19;;;;;;;10.23;5.43;;;;;;;;;;4966018;28;100130;-76
2023/06/22 07:22:46;;;;;;;14.30;7.38;;;;;;;;;;4971241;28;99207;-77
2023/06/22 07:25:17;;;;;;;12.55;6.80;;;;;;;;;;4984263;28;98993;-77
2023/06/22 07:27:56;;;;;;;15.82;6.68;;;;;;;;;;4974224;28;103600;-77
2023/06/22 07:30:23;;;;;;;14.30;5.60;;;;;;;;;;4983953;28;99772;-77
2023/06/22 07:32:50;;;;;;;12.18;6.47;;;;;;;;;;4974628;28;99074;-77
2023/06/22 07:35:17;;;;;;;10.82;4.55;;;;;;;;;;4978558;28;100497;-77
2023/06/22 07:37:43;;;;;;;14.80;5.07;;;;;;;;;;4972646;28;99284;-77
2023/06/22 07:40:10;;;;;;;11.02;4.57;;;;;;;;;;4975992;28;99392;-77
2023/06/22 07:42:37;;;;;;;12.90;6.22;;;;;;;;;;4979498;28;99139;-77
2023/06/22 07:45:04;;;;;;;11.82;5.13;;;;;;;;;;4982406;28;98740;-76
2023/06/22 07:47:33;;;;;;;10.70;5.93;;;;;;;;;;4981854;28;98771;-77
2023/06/22 07:50:01;;;;;;;13.07;6.80;;;;;;;;;;4978130;28;100654;-77
2023/06/22 07:52:28;;;;;;;9.25;4.57;;;;;;;;;;4979358;28;97850;-77
2023/06/22 07:54:54;;;;;;;9.55;5.13;;;;;;;;;;4987631;28;98959;-77
2023/06/22 07:57:21;;;;;;;10.10;4.75;;;;;;;;;;4973627;28;99761;-78
2023/06/22 07:59:48;;;;;;;10.00;4.65;;;;;;;;;;4982632;28;99627;-78
2023/06/22 08:02:15;;;;;;;6.75;3.47;;;;;;;;;;4982984;28;99733;-78
2023/06/22 08:04:42;;;;;;;11.18;4.15;;;;;;;;;;4984261;28;98559;-78
2023/06/22 08:07:09;;;;;;;9.10;4.75;;;;;;;;;;4981668;28;99479;-76
2023/06/22 08:09:36;;;;;;;8.15;3.40;;;;;;;;;;4983242;28;101909;-77
2023/06/22 08:12:03;;;;;;;;;;;;;;;;;;4983741;28;98906;-77
2023/06/22 08:14:30;;;;;;;7.10;3.22;;;;;;;;;;4985670;28;111618;-77
2023/06/22 08:16:56;;;;;;;13.93;8.75;;;;;;;;;;4983642;28;98439;-78
2023/06/22 08:19:23;;;;;;;12.63;5.85;;;;;;;;;;4982948;28;98653;-76
2023/06/22 08:21:49;;;;;;;11.50;4.68;;;;;;;;;;4988007;28;105165;-78
2023/06/22 08:24:16;;;;;;;11.52;6.85;;;;;;;;;;4981799;28;99981;-76
2023/06/22 08:26:43;;;;;;;11.10;5.65;;;;;;;;;;4975176;28;99726;-77
2023/06/22 08:29:10;;;;;;;11.93;5.05;;;;;;;;;;4985934;28;99138;-76
2023/06/22 08:31:37;;;;;;;14.05;6.03;;;;;;;;;;4982981;28;98582;-78
2023/06/22 08:34:04;;;;;;;13.68;8.07;;;;;;;;;;4978203;28;99706;-78
2023/06/22 08:36:32;;;;;;;11.13;4.88;;;;;;;;;;4981673;28;101981;-77
2023/06/22 08:39:01;;;;;;;9.65;4.93;;;;;;;;;;4978207;28;98664;-77
2023/06/22 08:41:28;;;;;;;8.70;4.45;;;;;;;;;;4982799;28;98772;-78
2023/06/22 08:43:55;;;;;;;11.10;6.20;;;;;;;;;;4977195;28;101838;-78
2023/06/22 08:46:24;;;;;;;10.88;5.90;;;;;;;;;;4987199;28;99091;-79
2023/06/22 08:48:51;;;;;;;10.95;5.70;;;;;;;;;;4986088;28;99949;-78
2023/06/22 08:51:17;;;;;;;10.70;5.57;;;;;;;;;;4987391;28;98542;-78
2023/06/22 08:53:45;;;;;;;10.63;5.00;;;;;;;;;;4994404;28;99382;-76
2023/06/22 08:56:11;;;;;;;11.23;5.90;;;;;;;;;;4978980;28;100224;-76
2023/06/22 08:58:38;;;;;;;9.25;4.85;;;;;;;;;;4993293;28;98718;-76
2023/06/22 09:01:05;;;;;;;8.90;4.03;;;;;;;;;;4984747;28;99373;-77
2023/06/22 09:03:32;;;;;;;9.07;4.57;;;;;;;;;;4985090;28;99106;-77
2023/06/22 09:05:59;;;;;;;14.30;7.40;;;;;;;;;;4981023;28;98402;-77
2023/06/22 09:08:26;;;;;;;11.88;4.80;;;;;;;;;;4990736;28;99110;-77
2023/06/22 09:10:53;;;;;;;11.57;5.00;;;;;;;;;;4975496;28;98571;-77
2023/06/22 09:13:20;;;;;;;8.98;4.50;;;;;;;;;;4972781;28;99825;-77
2023/06/22 09:15:46;;;;;;;9.98;5.70;;;;;;;;;;4983229;28;100998;-77
2023/06/22 09:18:13;;;;;;;9.13;4.30;;;;;;;;;;4985341;28;98901;-77
2023/06/22 09:20:40;;;;;;;10.02;5.88;;;;;;;;;;4985968;28;98788;-77
2023/06/22 09:23:07;;;;;;;7.63;3.97;;;;;;;;;;4967978;28;100840;-77
2023/06/22 09:25:33;;;;;;;7.07;4.00;;;;;;;;;;4972668;28;98479;-77
2023/06/22 09:28:00;;;;;;;8.88;4.15;;;;;;;;;;4988000;28;98796;-77
2023/06/22 09:30:27;;;;;;;9.95;5.53;;;;;;;;;;4983936;28;98363;-77
2023/06/22 09:32:54;;;;;;;;;;;;;;;;;;4971552;28;98568;-77
2023/06/22 09:35:20;;;;;;;13.40;6.75;;;;;;;;;;4993562;28;99289;-76
2023/06/22 09:37:47;;;;;;;9.38;5.03;;;;;;;;;;4995637;28;99313;-78
2023/06/22 09:40:16;;;;;;;8.80;4.63;;;;;;;;;;5001272;28;98545;-77
2023/06/22 09:42:43;;;;;;;12.75;6.28;;;;;;;;;;4983656;28;101858;-77
2023/06/22 09:45:10;;;;;;;9.70;5.50;;;;;;;;;;4981979;28;98743;-77
2023/06/22 09:47:37;;;;;;;10.80;5.25;;;;;;;;;;4993253;28;100541;-77
2023/06/22 09:50:04;;;;;;;11.18;4.90;;;;;;;;;;4988346;28;98565;-78
2023/06/22 09:52:31;;;;;;;10.50;5.40;;;;;;;;;;4995272;28;99011;-77
2023/06/22 09:55:12;;;;;;;8.65;5.38;;;;;;;;;;5007106;28;99387;-77
2023/06/22 09:57:39;;;;;;;9.27;4.90;;;;;;;;;;4993290;28;99279;-78
2023/06/22 10:00:08;;;;;;;8.93;4.38;;;;;;;;;;4987414;28;99659;-76
2023/06/22 10:02:35;;;;;;;9.85;4.60;;;;;;;;;;4976229;28;99913;-77
2023/06/22 10:05:02;;;;;;;8.15;4.28;;;;;;;;;;4987236;28;98981;-77
2023/06/22 10:07:29;;;;;;;10.00;4.50;;;;;;;;;;4974145;28;99404;-76
2023/06/22 10:09:56;;;;;;;8.07;4.30;;;;;;;;;;5001544;28;99154;-76
2023/06/22 10:12:22;;;;;;;9.38;4.63;;;;;;;;;;4972171;28;98898;-75
2023/06/22 10:14:49;;;;;;;8.65;4.43;;;;;;;;;;4984690;28;99133;-76
2023/06/22 10:17:16;;;;;;;8.10;4.50;;;;;;;;;;4978760;28;98766;-74
2023/06/22 10:19:43;;;;;;;8.35;4.30;;;;;;;;;;4993711;28;100530;-76
2023/06/22 10:22:09;;;;;;;9.27;5.35;;;;;;;;;;4972327;28;100493;-76
2023/06/22 10:24:36;;;;;;;8.57;4.65;;;;;;;;;;4990534;28;98697;-75
2023/06/22 10:27:02;;;;;;;9.90;4.97;;;;;;;;;;4981195;28;99898;-75
2023/06/22 10:29:29;;;;;;;8.77;5.13;;;;;;;;;;4969670;28;99168;-76
2023/06/22 10:31:56;;;;;;;7.90;4.22;;;;;;;;;;4985652;28;98638;-76
2023/06/22 10:34:22;;;;;;;9.07;4.10;;;;;;;;;;4976110;28;99779;-75
2023/06/22 10:36:49;;;;;;;9.52;4.47;;;;;;;;;;4973373;28;98608;-76
2023/06/22 10:39:15;;;;;;;7.85;3.85;;;;;;;;;;4981090;28;98977;-75
2023/06/22 10:41:42;;;;;;;8.00;3.80;;;;;;;;;;4977288;28;101876;-76
2023/06/22 10:44:09;;;;;;;7.32;3.60;;;;;;;;;;4974257;28;97861;-76
2023/06/22 10:46:35;;;;;;;8.35;4.40;;;;;;;;;;4974472;28;99079;-76
2023/06/22 10:49:02;;;;;;;8.93;3.63;;;;;;;;;;4971073;28;99402;-77
2023/06/22 10:51:28;;;;;;;8.57;3.40;;;;;;;;;;4982306;28;99780;-76
2023/06/22 10:53:55;;;;;;;10.25;4.30;;;;;;;;;;4984841;28;99651;-76
2023/06/22 10:56:22;;;;;;;7.38;4.00;;;;;;;;;;4976813;28;99473;-76
2023/06/22 10:58:49;;;;;;;7.93;3.35;;;;;;;;;;4973544;28;98964;-76
2023/06/22 11:01:16;;;;;;;8.55;3.92;;;;;;;;;;4974373;28;98919;-76
2023/06/22 11:04:00;;;;;;;8.70;3.88;;;;;;;;;;4964552;28;98470;-77
2023/06/22 11:06:27;;;;;;;8.05;3.08;;;;;;;;;;4978315;28;98826;-77
2023/06/22 11:08:53;;;;;;;7.38;3.67;;;;;;;;;;4993930;28;98852;-77
2023/06/22 11:11:32;;;;;;;8.57;3.95;;;;;;;;;;4978835;28;99024;-77
2023/06/22 11:13:58;;;;;;;6.90;3.45;;;;;;;;;;4978668;28;99337;-76
2023/06/22 11:16:25;;;;;;;8.05;3.60;;;;;;;;;;4986963;28;99806;-76
2023/06/22 11:18:52;;;;;;;10.75;4.60;;;;;;;;;;4982219;28;102214;-75
2023/06/22 11:21:18;;;;;;;9.20;4.70;;;;;;;;;;4983409;28;100697;-76
2023/06/22 11:23:45;;;;;;;11.07;4.15;;;;;;;;;;4977504;28;99075;-75
2023/06/22 11:26:11;;;;;;;8.95;4.30;;;;;;;;;;4982583;28;99202;-75
2023/06/22 11:28:38;;;;;;;9.20;4.63;;;;;;;;;;4983940;28;99416;-75
2023/06/22 11:31:06;;;;;;;8.65;4.57;;;;;;;;;;4975500;28;98656;-76
2023/06/22 11:33:51;;;;;;;8.77;4.25;;;;;;;;;;4982724;28;104501;-75
2023/06/22 11:36:18;;;;;;;7.50;4.13;;;;;;;;;;4962820;28;100221;-75
2023/06/22 11:38:45;;;;;;;;;;;;;;;;;;4984529;28;98891;-75
2023/06/22 11:41:11;;;;;;;8.38;4.10;;;;;;;;;;4973569;28;112451;-76
2023/06/22 11:43:38;;;;;;;8.48;4.25;;;;;;;;;;4980107;28;98726;-75
2023/06/22 11:46:05;;;;;;;8.65;4.43;;;;;;;;;;4983242;28;98995;-75
2023/06/22 11:48:31;;;;;;;8.50;4.40;;;;;;;;;;4982782;28;99188;-75
2023/06/22 11:50:58;;;;;;;8.80;4.55;;;;;;;;;;4979294;28;99116;-76
2023/06/22 11:53:26;;;;;;;7.60;4.10;;;;;;;;;;4983642;28;98915;-75
2023/06/22 11:55:54;;;;;;;8.90;4.15;;;;;;;;;;4983262;28;99494;-75
2023/06/22 11:58:21;;;;;;;10.25;5.47;;;;;;;;;;4996784;28;98039;-79
2023/06/22 12:00:47;;;;;;;14.23;6.00;;;;;;;;;;4984297;28;99465;-79
2023/06/22 12:03:17;;;;;;;13.07;5.50;;;;;;;;;;4988140;28;98872;-76
2023/06/22 12:05:44;;;;;;;9.45;4.63;;;;;;;;;;4985367;28;100960;-77
2023/06/22 12:08:11;;;;;;;10.75;5.57;;;;;;;;;;4975964;28;99357;-76
2023/06/22 12:10:38;;;;;;;;;;;;;;;;;;4984612;28;99431;-77
2023/06/22 12:13:04;;;;;;;9.80;4.72;;;;;;;;;;4979689;28;99109;-77
2023/06/22 12:15:31;;;;;;;10.55;3.80;;;;;;;;;;4978373;28;99696;-76
2023/06/22 12:17:58;;;;;;;11.57;3.60;;;;;;;;;;4974817;28;98773;-76
2023/06/22 12:20:24;;;;;;;8.93;3.60;;;;;;;;;;4985759;28;106337;-75
2023/06/22 12:22:52;;;;;;;;;;;;;;;;;;4985354;28;97856;-75
2023/06/22 12:25:19;;;;;;;8.82;3.22;;;;;;;;;;4983207;28;99365;-76
2023/06/22 12:27:45;;;;;;;8.82;3.28;;;;;;;;;;4976701;28;100061;-76
2023/06/22 12:30:12;;;;;;;9.15;3.30;;;;;;;;;;4974819;28;99345;-76
2023/06/22 12:32:38;;;;;;;7.63;3.42;;;;;;;;;;4972661;28;100882;-76
2023/06/22 12:35:07;;;;;;;9.18;3.50;;;;;;;;;;4975056;28;99073;-76
2023/06/22 12:37:34;;;;;;;9.20;3.35;;;;;;;;;;4983159;28;99079;-76
2023/06/22 12:40:00;;;;;;;7.95;3.15;;;;;;;;;;4986777;28;98992;-76
2023/06/22 12:42:28;;;;;;;8.05;3.17;;;;;;;;;;4989045;28;99199;-76
2023/06/22 12:44:54;;;;;;;6.13;3.00;;;;;;;;;;4973964;28;99907;-76
2023/06/22 12:47:21;;;;;;;9.35;3.03;;;;;;;;;;4973981;28;100008;-75
2023/06/22 12:49:48;;;;;;;6.68;2.92;;;;;;;;;;4978087;28;98521;-75
2023/06/22 12:52:15;;;;;;;7.40;3.17;;;;;;;;;;4983022;28;99447;-76
2023/06/22 12:54:41;;;;;;;7.95;3.30;;;;;;;;;;4977958;28;100124;-77
2023/06/22 12:57:20;;;;;;;8.32;3.38;;;;;;;;;;4975968;28;98629;-75
2023/06/22 12:59:47;;;;;;;7.93;2.88;;;;;;;;;;4978416;28;99816;-76
2023/06/22 13:02:13;;;;;;;7.10;3.05;;;;;;;;;;4979536;28;99412;-76
2023/06/22 13:04:40;;;;;;;6.60;2.97;;;;;;;;;;4985207;28;98571;-75
2023/06/22 13:07:06;;;;;;;7.93;2.90;;;;;;;;;;4983305;28;99587;-76
2023/06/22 13:09:51;;;;;;;8.80;3.08;;;;;;;;;;4983043;28;99107;-76
2023/06/22 13:12:20;;;;;;;7.00;3.10;;;;;;;;;;4983852;28;99895;-76
2023/06/22 13:14:46;;;;;;;6.05;2.80;;;;;;;;;;4971135;28;99314;-76
2023/06/22 13:17:13;;;;;;;8.15;3.03;;;;;;;;;;4979869;28;99831;-79
2023/06/22 13:19:40;;;;;;;7.97;2.72;;;;;;;;;;4976219;28;103846;-76
2023/06/22 13:22:25;;;;;;;9.00;3.65;;;;;;;;;;4986188;28;99262;-77
2023/06/22 13:24:52;;;;;;;19.70;5.43;;;;;;;;;;4978185;28;99750;-76
2023/06/22 13:27:21;;;;;;;14.25;5.35;;;;;;;;;;4976067;28;99901;-74
2023/06/22 13:29:49;;;;;;;12.20;5.30;;;;;;;;;;4976944;28;100133;-76
2023/06/22 13:32:16;;;;;;;12.20;4.63;;;;;;;;;;4982504;28;99466;-76
2023/06/22 13:34:43;;;;;;;10.60;4.22;;;;;;;;;;4977866;28;100201;-75
2023/06/22 13:37:09;;;;;;;12.40;4.03;;;;;;;;;;4985590;28;98151;-76
2023/06/22 13:39:36;;;;;;;10.05;3.72;;;;;;;;;;4974248;28;99254;-75
2023/06/22 13:42:03;;;;;;;9.95;4.00;;;;;;;;;;4963186;28;99430;-76
2023/06/22 13:44:29;;;;;;;9.20;3.80;;;;;;;;;;4976616;28;99623;-76
2023/06/22 13:46:56;;;;;;;8.45;3.85;;;;;;;;;;4985653;28;99790;-76
2023/06/22 13:49:22;;;;;;;9.70;3.90;;;;;;;;;;4983655;28;98958;-76
2023/06/22 13:51:50;;;;;;;7.05;3.47;;;;;;;;;;4981276;28;99959;-76
2023/06/22 13:54:16;;;;;;;8.20;3.80;;;;;;;;;;4980910;28;99871;-76
2023/06/22 13:56:50;;;;;;;9.57;3.70;;;;;;;;;;4985395;28;98580;-76
2023/06/22 13:59:17;;;;;;;8.20;4.10;;;;;;;;;;4985696;28;99473;-75
2023/06/22 14:01:43;;;;;;;8.27;3.45;;;;;;;;;;4976282;28;98516;-76
2023/06/22 14:04:10;;;;;;;7.38;3.70;;;;;;;;;;4966071;28;98567;-76
2023/06/22 14:06:37;;;;;;;8.30;3.70;;;;;;;;;;4956353;28;101765;-76
2023/06/22 14:09:04;;;;;;;;;;;;;;;;;;4989508;28;101426;-76
2023/06/22 14:11:30;;;;;;;7.82;3.50;;;;;;;;;;4987143;28;109415;-76
2023/06/22 14:13:57;;;;;;;7.30;3.65;;;;;;;;;;4984124;28;99121;-76
2023/06/22 14:16:24;;;;;;;8.55;3.63;;;;;;;;;;4986381;28;99306;-76
2023/06/22 14:18:50;;;;;;;7.15;3.22;;;;;;;;;;4984850;28;101367;-76
2023/06/22 14:21:20;;;;;;;6.65;3.75;;;;;;;;;;4983974;28;100257;-75
2023/06/22 14:23:49;;;;;;;6.53;3.28;;;;;;;;;;4993624;28;98689;-76
2023/06/22 14:26:19;;;;;;;6.75;3.22;;;;;;;;;;4985903;28;98886;-76
2023/06/22 14:28:48;;;;;;;7.57;3.50;;;;;;;;;;4982981;28;99791;-76
2023/06/22 14:31:15;;;;;;;6.93;3.10;;;;;;;;;;4981830;28;98517;-74
2023/06/22 14:33:42;;;;;;;;;;;;;;;;;;4983677;28;100085;-76
2023/06/22 14:36:10;;;;;;;6.10;3.17;;;;;;;;;;4985297;28;98627;-75
2023/06/22 14:38:38;;;;;;;8.05;3.35;;;;;;;;;;4993575;28;99903;-76
2023/06/22 14:41:04;;;;;;;6.57;3.20;;;;;;;;;;4984515;28;99195;-75